createdAt,value
2017-06-14T00:01:34.553Z,10.07
2017-06-14T00:04:02.063Z,9.80
2017-06-14T00:06:30.323Z,11.00
2017-06-14T00:08:57.868Z,12.57
2017-06-14T00:11:25.468Z,12.48
2017-06-14T00:13:52.964Z,11.60
2017-06-14T00:16:20.514Z,11.98
2017-06-14T00:18:48.007Z,12.68
2017-06-14T00:21:15.609Z,12.70
2017-06-14T00:23:43.102Z,12.20
2017-06-14T00:26:10.683Z,11.60
2017-06-14T00:28:38.239Z,13.13
2017-06-14T00:31:05.731Z,13.30
2017-06-14T00:33:33.271Z,14.73
2017-06-14T00:36:01.517Z,12.55
2017-06-14T00:38:29.131Z,14.43
2017-06-14T00:40:56.714Z,13.70
2017-06-14T00:43:24.261Z,15.77
2017-06-14T00:45:51.783Z,15.65
2017-06-14T00:48:19.312Z,15.68
2017-06-14T00:50:46.807Z,15.55
2017-06-14T00:53:14.587Z,15.95
2017-06-14T00:55:42.119Z,15.40
2017-06-14T00:58:09.659Z,16.08
2017-06-14T01:00:37.191Z,16.75
2017-06-14T01:03:04.646Z,16.70
2017-06-14T01:05:32.122Z,17.40
2017-06-14T01:08:00.369Z,17.58
2017-06-14T01:10:28.094Z,18.02
2017-06-14T01:12:55.546Z,17.40
2017-06-14T01:15:23.309Z,17.23
2017-06-14T01:17:50.790Z,12.90
2017-06-14T01:20:18.250Z,16.08
2017-06-14T01:22:45.730Z,16.15
2017-06-14T01:25:13.438Z,18.58
2017-06-14T01:27:41.117Z,19.52
2017-06-14T01:30:08.628Z,18.65
2017-06-14T01:32:36.141Z,19.80
2017-06-14T01:35:03.687Z,16.15
2017-06-14T01:37:31.149Z,15.60
2017-06-14T01:39:58.611Z,14.75
2017-06-14T01:42:26.442Z,15.32
2017-06-14T01:44:53.993Z,14.23
2017-06-14T01:47:21.527Z,14.52
2017-06-14T01:49:48.991Z,15.50
2017-06-14T01:52:16.450Z,16.23
2017-06-14T01:54:43.970Z,16.50
2017-06-14T01:57:11.439Z,15.80
2017-06-14T01:59:39.749Z,17.17
2017-06-14T02:02:07.213Z,17.83
2017-06-14T02:04:34.697Z,18.58
2017-06-14T02:07:02.178Z,19.27
2017-06-14T02:09:30.401Z,17.40
2017-06-14T02:11:57.889Z,17.50
2017-06-14T02:14:25.390Z,15.93
2017-06-14T02:16:52.899Z,17.33
2017-06-14T02:19:20.650Z,17.77
2017-06-14T02:21:48.120Z,18.67
2017-06-14T02:24:15.618Z,18.70
2017-06-14T02:26:43.166Z,18.27
2017-06-14T02:29:10.674Z,19.65
2017-06-14T02:31:38.204Z,19.60
2017-06-14T02:34:05.687Z,20.20
2017-06-14T02:36:33.157Z,18.75
2017-06-14T02:39:00.676Z,18.83
2017-06-14T02:41:28.191Z,17.20
2017-06-14T02:43:56.484Z,16.60
2017-06-14T02:46:24.094Z,17.02
2017-06-14T02:48:51.678Z,15.90
2017-06-14T02:51:19.129Z,16.05
2017-06-14T02:53:47.353Z,16.83
2017-06-14T02:56:14.890Z,17.20
2017-06-14T02:58:42.397Z,17.12
2017-06-14T03:01:10.122Z,18.02
2017-06-14T03:03:37.621Z,16.67
2017-06-14T03:06:05.147Z,17.27
2017-06-14T03:08:32.899Z,15.98
2017-06-14T03:11:00.659Z,16.58
2017-06-14T03:13:28.262Z,17.58
2017-06-14T03:15:55.721Z,17.45
2017-06-14T03:18:23.226Z,17.50
2017-06-14T03:20:56.525Z,17.27
2017-06-14T03:23:24.057Z,16.92
2017-06-14T03:25:51.577Z,17.00
2017-06-14T03:28:19.033Z,17.92
2017-06-14T03:30:46.491Z,16.23
2017-06-14T03:33:13.962Z,18.55
2017-06-14T03:35:41.433Z,17.50
2017-06-14T03:38:09.220Z,14.85
2017-06-14T03:40:36.712Z,15.50
2017-06-14T03:43:04.186Z,14.98
2017-06-14T03:45:32.425Z,16.15
2017-06-14T03:47:59.886Z,15.93
2017-06-14T03:50:27.398Z,15.60
2017-06-14T03:52:54.854Z,14.13
2017-06-14T03:55:22.379Z,14.98
2017-06-14T03:57:50.193Z,14.18
2017-06-14T04:00:17.958Z,14.87
2017-06-14T04:02:45.850Z,14.32
2017-06-14T04:05:13.345Z,14.87
2017-06-14T04:07:40.846Z,16.52
2017-06-14T04:10:09.337Z,12.85
2017-06-14T04:12:37.670Z,14.43
2017-06-14T04:15:05.160Z,14.48
2017-06-14T04:17:32.902Z,15.63
2017-06-14T04:20:00.367Z,14.75
2017-06-14T04:22:28.118Z,14.30
2017-06-14T04:24:55.644Z,14.65
2017-06-14T04:27:23.205Z,14.95
2017-06-14T04:29:56.473Z,13.77
2017-06-14T04:32:24.398Z,13.35
2017-06-14T04:34:51.865Z,13.80
2017-06-14T04:37:19.349Z,13.18
2017-06-14T04:39:47.170Z,13.73
2017-06-14T04:42:14.629Z,13.77
2017-06-14T04:44:42.122Z,12.82
2017-06-14T04:47:09.941Z,13.77
2017-06-14T04:49:37.702Z,13.32
2017-06-14T04:52:05.202Z,14.45
2017-06-14T04:54:32.667Z,13.45
2017-06-14T04:57:00.205Z,17.67
2017-06-14T04:59:27.666Z,14.05
2017-06-14T05:01:55.145Z,14.98
2017-06-14T05:04:23.390Z,14.23
2017-06-14T05:06:51.066Z,14.50
2017-06-14T05:09:19.195Z,16.30
2017-06-14T05:11:46.714Z,14.75
2017-06-14T05:14:14.273Z,14.10
2017-06-14T05:16:41.778Z,12.75
2017-06-14T05:19:09.242Z,12.23
2017-06-14T05:21:36.799Z,11.38
2017-06-14T05:24:04.254Z,9.93
2017-06-14T05:26:31.750Z,8.50
2017-06-14T05:28:59.986Z,8.90
2017-06-14T05:31:27.442Z,7.55
2017-06-14T05:33:54.966Z,6.60
2017-06-14T05:36:22.483Z,7.93
2017-06-14T05:38:49.952Z,7.43
2017-06-14T05:41:17.740Z,7.70
2017-06-14T05:43:45.520Z,5.53
2017-06-14T05:46:13.036Z,5.40
2017-06-14T05:48:40.718Z,5.47
2017-06-14T05:51:08.263Z,5.20
2017-06-14T05:53:35.762Z,4.53
2017-06-14T05:56:03.269Z,5.00
2017-06-14T05:58:30.751Z,5.43
2017-06-14T06:00:58.515Z,5.77
2017-06-14T06:03:26.060Z,7.10
2017-06-14T06:05:53.568Z,7.17
2017-06-14T06:08:21.052Z,6.23
2017-06-14T06:10:48.624Z,5.10
2017-06-14T06:13:16.139Z,4.23
2017-06-14T06:15:43.962Z,4.97
2017-06-14T06:18:13.170Z,5.10
2017-06-14T06:20:40.680Z,4.80
2017-06-14T06:23:08.211Z,5.70
2017-06-14T06:25:35.793Z,4.93
2017-06-14T06:28:03.288Z,4.80
2017-06-14T06:30:30.866Z,5.40
2017-06-14T06:32:58.577Z,4.90
2017-06-14T06:35:26.128Z,4.63
2017-06-14T06:37:53.620Z,5.47
2017-06-14T06:40:21.392Z,5.00
2017-06-14T06:42:48.986Z,5.03
2017-06-14T06:45:16.527Z,4.65
2017-06-14T06:47:44.156Z,4.78
2017-06-14T06:50:11.647Z,5.05
2017-06-14T06:52:40.424Z,5.15
2017-06-14T06:55:07.927Z,5.70
2017-06-14T06:57:35.720Z,6.40
2017-06-14T07:00:03.573Z,5.80
2017-06-14T07:02:31.072Z,6.37
2017-06-14T07:04:58.587Z,5.70
2017-06-14T07:07:26.148Z,5.12
2017-06-14T07:09:53.911Z,5.05
2017-06-14T07:12:21.463Z,4.70
2017-06-14T07:14:49.230Z,5.57
2017-06-14T07:17:16.763Z,5.07
2017-06-14T07:19:44.323Z,5.55
2017-06-14T07:22:11.844Z,5.60
2017-06-14T07:24:39.396Z,5.72
2017-06-14T07:27:07.223Z,5.40
2017-06-14T07:29:34.734Z,5.75
2017-06-14T07:32:03.075Z,5.72
2017-06-14T07:34:30.588Z,5.82
2017-06-14T07:36:58.376Z,5.97
2017-06-14T07:39:25.903Z,6.93
2017-06-14T07:41:53.437Z,6.87
2017-06-14T07:44:21.712Z,7.18
2017-06-14T07:46:50.043Z,7.18
2017-06-14T07:49:17.547Z,6.60
2017-06-14T07:51:45.056Z,5.85
2017-06-14T07:54:12.759Z,7.00
2017-06-14T07:56:40.267Z,5.72
2017-06-14T07:59:07.754Z,6.18
2017-06-14T08:01:35.300Z,5.12
2017-06-14T08:04:02.823Z,5.22
2017-06-14T08:06:30.350Z,7.10
2017-06-14T08:08:57.955Z,6.43
2017-06-14T08:11:25.442Z,5.30
2017-06-14T08:13:53.233Z,6.15
2017-06-14T08:16:20.763Z,5.90
2017-06-14T08:18:48.263Z,5.22
2017-06-14T08:21:15.774Z,5.30
2017-06-14T08:23:43.268Z,5.40
2017-06-14T08:26:11.163Z,6.18
2017-06-14T08:28:38.717Z,6.20
2017-06-14T08:31:06.212Z,5.55
2017-06-14T08:33:33.723Z,6.40
2017-06-14T08:36:01.216Z,5.80
2017-06-14T08:38:28.770Z,5.75
2017-06-14T08:40:56.270Z,6.15
2017-06-14T08:43:23.763Z,4.37
2017-06-14T08:45:51.313Z,4.18
2017-06-14T08:48:18.834Z,4.30
2017-06-14T08:50:46.380Z,4.70
2017-06-14T08:53:13.962Z,4.65
2017-06-14T08:55:41.772Z,3.72
2017-06-14T08:58:09.331Z,4.65
2017-06-14T09:00:36.884Z,4.30
2017-06-14T09:03:04.403Z,4.32
2017-06-14T09:05:31.899Z,4.43
2017-06-14T09:07:59.392Z,5.28
2017-06-14T09:10:27.668Z,6.00
2017-06-14T09:12:56.072Z,5.30
2017-06-14T09:15:23.656Z,4.43
2017-06-14T09:17:51.162Z,5.18
2017-06-14T09:20:18.733Z,4.77
2017-06-14T09:22:46.248Z,6.13
2017-06-14T09:25:13.956Z,5.70
2017-06-14T09:27:41.492Z,5.25
2017-06-14T09:30:09.050Z,5.85
2017-06-14T09:32:36.779Z,6.32
2017-06-14T09:35:04.353Z,5.97
2017-06-14T09:37:31.950Z,6.00
2017-06-14T09:39:59.512Z,4.60
2017-06-14T09:42:27.032Z,4.90
2017-06-14T09:44:55.335Z,5.22
2017-06-14T09:47:22.889Z,4.72
2017-06-14T09:49:50.681Z,4.90
2017-06-14T09:52:18.204Z,5.10
2017-06-14T09:54:45.911Z,6.00
2017-06-14T09:57:13.412Z,5.75
2017-06-14T09:59:40.925Z,5.28
2017-06-14T10:02:08.418Z,4.12
2017-06-14T10:04:36.704Z,5.28
2017-06-14T10:07:04.504Z,5.25
2017-06-14T10:09:32.263Z,5.85
2017-06-14T10:11:59.799Z,7.20
2017-06-14T10:14:27.509Z,6.15
2017-06-14T10:16:55.349Z,5.05
2017-06-14T10:19:23.109Z,6.68
2017-06-14T10:21:50.600Z,5.80
2017-06-14T10:24:18.112Z,6.40
2017-06-14T10:26:45.602Z,6.30
2017-06-14T10:29:13.116Z,5.25
2017-06-14T10:31:40.618Z,4.72
2017-06-14T10:34:08.123Z,5.65
2017-06-14T10:36:35.628Z,4.50
2017-06-14T10:39:03.207Z,5.78
2017-06-14T10:41:30.747Z,6.10
2017-06-14T10:43:58.399Z,5.90
2017-06-14T10:46:25.907Z,5.80
2017-06-14T10:48:53.459Z,5.72
2017-06-14T10:51:21.314Z,4.95
2017-06-14T10:53:48.869Z,5.55
2017-06-14T10:56:17.122Z,5.60
2017-06-14T10:58:45.287Z,4.70
2017-06-14T11:01:12.820Z,5.28
2017-06-14T11:03:40.400Z,4.90
2017-06-14T11:06:07.940Z,4.87
2017-06-14T11:08:35.497Z,5.82
2017-06-14T11:11:03.055Z,5.20
2017-06-14T11:13:30.539Z,6.85
2017-06-14T11:15:58.052Z,5.70
2017-06-14T11:18:25.587Z,5.55
2017-06-14T11:20:53.184Z,5.05
2017-06-14T11:23:20.748Z,4.87
2017-06-14T11:25:48.313Z,4.80
2017-06-14T11:28:15.814Z,5.62
2017-06-14T11:30:43.302Z,5.25
2017-06-14T11:33:10.818Z,6.65
2017-06-14T11:35:39.075Z,5.90
2017-06-14T11:38:06.641Z,5.07
2017-06-14T11:40:34.475Z,5.45
2017-06-14T11:43:01.999Z,4.40
2017-06-14T11:45:29.506Z,4.75
2017-06-14T11:47:57.008Z,4.60
2017-06-14T11:50:24.783Z,3.85
2017-06-14T11:52:52.495Z,4.12
2017-06-14T11:55:20.027Z,4.60
2017-06-14T11:57:47.863Z,5.03
2017-06-14T12:00:15.371Z,5.00
2017-06-14T12:02:43.673Z,5.80
2017-06-14T12:05:11.163Z,4.82
2017-06-14T12:07:38.725Z,4.05
2017-06-14T12:10:06.583Z,4.83
2017-06-14T12:12:34.092Z,4.65
2017-06-14T12:15:02.636Z,5.30
2017-06-14T12:17:30.275Z,4.80
2017-06-14T12:19:57.803Z,4.00
2017-06-14T12:22:25.322Z,4.30
2017-06-14T12:24:52.855Z,5.45
2017-06-14T12:27:20.382Z,4.37
2017-06-14T12:29:48.184Z,4.20
2017-06-14T12:32:15.712Z,4.37
2017-06-14T12:34:43.227Z,4.35
2017-06-14T12:37:11.756Z,3.60
2017-06-14T12:39:39.519Z,5.40
2017-06-14T12:42:07.040Z,3.70
2017-06-14T12:44:34.534Z,3.40
2017-06-14T12:47:02.072Z,3.00
2017-06-14T12:49:29.615Z,3.10
2017-06-14T12:51:57.188Z,2.53
2017-06-14T12:54:24.746Z,3.00
2017-06-14T12:56:52.260Z,3.80
2017-06-14T12:59:20.911Z,3.70
2017-06-14T13:01:48.458Z,3.20
2017-06-14T13:04:15.968Z,3.47
2017-06-14T13:06:44.455Z,3.35
2017-06-14T13:09:11.967Z,4.30
2017-06-14T13:11:39.463Z,3.28
2017-06-14T13:14:07.171Z,3.92
2017-06-14T13:16:34.730Z,3.67
2017-06-14T13:19:02.220Z,3.37
2017-06-14T13:21:29.771Z,3.55
2017-06-14T13:23:57.307Z,3.33
2017-06-14T13:26:24.832Z,2.70
2017-06-14T13:28:52.373Z,2.60
2017-06-14T13:31:19.939Z,2.78
2017-06-14T13:33:47.497Z,2.92
2017-06-14T13:36:14.987Z,3.00
2017-06-14T13:38:42.839Z,2.78
2017-06-14T13:41:10.326Z,2.85
2017-06-14T13:43:37.872Z,2.42
2017-06-14T13:46:05.399Z,2.85
2017-06-14T13:48:32.892Z,2.05
2017-06-14T13:51:00.441Z,2.55
2017-06-14T13:53:27.989Z,2.33
2017-06-14T13:55:55.514Z,2.97
2017-06-14T13:58:23.067Z,2.20
2017-06-14T14:00:50.587Z,3.20
2017-06-14T14:03:18.163Z,2.65
2017-06-14T14:05:46.990Z,3.40
2017-06-14T14:08:14.628Z,3.80
2017-06-14T14:10:42.119Z,3.00
2017-06-14T14:13:09.758Z,2.55
2017-06-14T14:15:37.247Z,3.78
2017-06-14T14:18:04.811Z,3.33
2017-06-14T14:20:32.370Z,2.78
2017-06-14T14:22:59.903Z,2.70
2017-06-14T14:25:27.814Z,2.65
2017-06-14T14:27:56.063Z,2.30
2017-06-14T14:30:23.900Z,2.70
2017-06-14T14:32:51.683Z,3.20
2017-06-14T14:35:19.539Z,2.62
2017-06-14T14:37:47.100Z,2.60
2017-06-14T14:40:14.587Z,2.80
2017-06-14T14:42:42.097Z,2.28
2017-06-14T14:45:09.630Z,3.30
2017-06-14T14:47:37.159Z,2.75
2017-06-14T14:50:05.435Z,2.70
2017-06-14T14:52:33.991Z,2.37
2017-06-14T14:55:01.521Z,2.85
2017-06-14T14:57:29.012Z,2.87
2017-06-14T14:59:56.546Z,3.30
2017-06-14T15:02:24.071Z,2.83
2017-06-14T15:04:51.588Z,3.53
2017-06-14T15:07:19.132Z,3.83
2017-06-14T15:09:46.682Z,3.53
2017-06-14T15:12:14.556Z,3.58
2017-06-14T15:14:42.039Z,3.80
2017-06-14T15:17:10.357Z,3.72
2017-06-14T15:19:37.856Z,4.50
2017-06-14T15:22:05.834Z,4.12
2017-06-14T15:24:33.669Z,3.70
2017-06-14T15:27:01.283Z,3.67
2017-06-14T15:29:28.819Z,4.40
2017-06-14T15:31:56.340Z,2.75
2017-06-14T15:34:23.899Z,3.78
2017-06-14T15:36:51.511Z,3.95
2017-06-14T15:39:19.646Z,5.45
2017-06-14T15:41:47.475Z,4.25
2017-06-14T15:44:15.036Z,4.60
2017-06-14T15:46:42.608Z,5.30
2017-06-14T15:49:10.111Z,3.83
2017-06-14T15:51:37.647Z,4.10
2017-06-14T15:54:05.143Z,3.97
2017-06-14T15:56:32.684Z,3.28
2017-06-14T15:59:00.476Z,4.62
2017-06-14T16:01:28.060Z,4.00
2017-06-14T16:03:55.807Z,3.75
2017-06-14T16:06:23.291Z,3.90
2017-06-14T16:08:50.799Z,4.60
2017-06-14T16:11:18.287Z,3.62
2017-06-14T16:13:45.796Z,3.70
2017-06-14T16:16:13.372Z,4.60
2017-06-14T16:18:40.885Z,4.60
2017-06-14T16:21:08.597Z,4.60
2017-06-14T16:23:36.084Z,4.30
2017-06-14T16:26:03.615Z,4.30
2017-06-14T16:28:31.128Z,4.32
2017-06-14T16:30:58.746Z,3.35
2017-06-14T16:33:26.693Z,3.22
2017-06-14T16:35:54.324Z,3.33
2017-06-14T16:38:21.847Z,3.47
2017-06-14T16:40:50.131Z,2.83
2017-06-14T16:43:18.418Z,3.58
2017-06-14T16:45:45.915Z,3.90
2017-06-14T16:48:13.771Z,3.53
2017-06-14T16:50:41.263Z,2.60
2017-06-14T16:53:08.777Z,3.08
2017-06-14T16:55:36.663Z,3.30
2017-06-14T16:58:04.230Z,3.47
2017-06-14T17:00:31.814Z,3.67
2017-06-14T17:03:01.761Z,3.05
2017-06-14T17:05:29.421Z,3.25
2017-06-14T17:07:56.959Z,3.60
2017-06-14T17:10:25.280Z,3.20
2017-06-14T17:12:53.035Z,3.62
2017-06-14T17:15:20.672Z,3.03
2017-06-14T17:17:48.299Z,3.00
2017-06-14T17:20:16.598Z,2.95
2017-06-14T17:22:44.120Z,2.90
2017-06-14T17:25:11.687Z,2.80
2017-06-14T17:27:39.970Z,3.22
2017-06-14T17:30:08.631Z,3.17
2017-06-14T17:32:36.364Z,3.37
2017-06-14T17:35:04.123Z,2.90
2017-06-14T17:37:31.620Z,3.40
2017-06-14T17:39:59.211Z,2.90
2017-06-14T17:42:26.703Z,2.72
2017-06-14T17:44:54.288Z,2.62
2017-06-14T17:47:21.781Z,2.97
2017-06-14T17:49:49.507Z,3.50
2017-06-14T17:52:17.047Z,3.05
2017-06-14T17:54:44.564Z,3.50
2017-06-14T17:57:12.767Z,3.22
2017-06-14T17:59:40.255Z,3.00
2017-06-14T18:02:07.799Z,3.10
2017-06-14T18:04:35.288Z,3.22
2017-06-14T18:07:03.091Z,2.90
2017-06-14T18:09:30.604Z,3.20
2017-06-14T18:11:58.090Z,3.58
2017-06-14T18:14:25.598Z,2.62
2017-06-14T18:16:53.086Z,3.50
2017-06-14T18:19:20.608Z,3.65
2017-06-14T18:21:48.145Z,3.70
2017-06-14T18:24:15.683Z,3.75
2017-06-14T18:26:43.267Z,3.10
2017-06-14T18:29:11.103Z,2.83
2017-06-14T18:31:38.636Z,2.75
2017-06-14T18:34:06.472Z,3.08
2017-06-14T18:36:34.856Z,3.20
2017-06-14T18:39:02.388Z,3.15
2017-06-14T18:41:30.991Z,2.92
2017-06-14T18:43:58.595Z,3.00
2017-06-14T18:46:26.124Z,3.15
2017-06-14T18:48:54.072Z,2.85
2017-06-14T18:51:22.596Z,3.37
2017-06-14T18:53:50.408Z,2.90
2017-06-14T18:56:17.894Z,3.10
2017-06-14T18:58:45.397Z,3.42
2017-06-14T19:01:19.745Z,3.05
2017-06-14T19:03:48.641Z,3.33
2017-06-14T19:06:17.712Z,3.60
2017-06-14T19:08:45.268Z,3.25
2017-06-14T19:11:12.887Z,3.05
2017-06-14T19:13:40.487Z,3.97
2017-06-14T19:16:08.074Z,3.30
2017-06-14T19:18:36.264Z,3.75
2017-06-14T19:21:24.533Z,3.90
2017-06-14T19:23:52.077Z,3.95
2017-06-14T19:26:19.631Z,3.80
2017-06-14T19:28:48.035Z,3.67
2017-06-14T19:31:21.216Z,3.67
2017-06-14T19:33:48.789Z,3.87
2017-06-14T19:36:16.280Z,3.70
2017-06-14T19:38:44.067Z,3.90
2017-06-14T19:41:11.567Z,4.07
2017-06-14T19:43:39.632Z,4.05
2017-06-14T19:46:07.970Z,4.00
2017-06-14T19:48:35.530Z,3.75
2017-06-14T19:51:03.080Z,4.80
2017-06-14T19:53:30.583Z,5.12
2017-06-14T19:55:58.100Z,5.32
2017-06-14T19:58:25.595Z,5.57
2017-06-14T20:00:53.114Z,4.90
2017-06-14T20:03:20.699Z,3.92
2017-06-14T20:05:48.441Z,4.25
2017-06-14T20:08:15.992Z,4.45
2017-06-14T20:10:43.495Z,5.50
2017-06-14T20:13:11.051Z,4.60
2017-06-14T20:15:38.542Z,4.35
2017-06-14T20:18:06.467Z,4.53
2017-06-14T20:20:34.088Z,4.93
2017-06-14T20:23:01.575Z,4.05
2017-06-14T20:25:29.088Z,4.03
2017-06-14T20:27:56.582Z,3.83
2017-06-14T20:30:24.127Z,4.68
2017-06-14T20:32:51.704Z,4.53
2017-06-14T20:35:19.190Z,5.40
2017-06-14T20:37:47.815Z,4.95
2017-06-14T20:40:15.356Z,5.70
2017-06-14T20:42:42.931Z,6.40
2017-06-14T20:45:10.651Z,6.30
2017-06-14T20:47:38.179Z,6.10
2017-06-14T20:50:05.752Z,7.10
2017-06-14T20:52:34.064Z,5.80
2017-06-14T20:55:01.576Z,7.57
2017-06-14T20:57:29.287Z,6.75
2017-06-14T20:59:56.817Z,6.30
2017-06-14T21:02:25.091Z,4.95
2017-06-14T21:04:53.596Z,4.72
2017-06-14T21:07:21.135Z,5.47
2017-06-14T21:09:49.005Z,5.30
2017-06-14T21:12:16.534Z,4.45
2017-06-14T21:14:44.824Z,4.80
2017-06-14T21:17:12.335Z,4.93
2017-06-14T21:19:39.999Z,4.55
2017-06-14T21:22:07.558Z,4.20
2017-06-14T21:24:35.127Z,4.55
2017-06-14T21:27:02.955Z,4.55
2017-06-14T21:29:30.568Z,4.57
2017-06-14T21:31:58.180Z,4.53
2017-06-14T21:34:25.696Z,4.50
2017-06-14T21:36:53.212Z,5.07
2017-06-14T21:39:21.051Z,4.32
2017-06-14T21:41:48.579Z,4.03
2017-06-14T21:44:16.315Z,5.00
2017-06-14T21:46:44.176Z,6.12
2017-06-14T21:49:11.997Z,4.85
2017-06-14T21:51:39.599Z,4.65
2017-06-14T21:54:07.902Z,4.70
2017-06-14T21:56:35.419Z,4.45
2017-06-14T21:59:02.919Z,6.00
2017-06-14T22:01:30.711Z,5.25
2017-06-14T22:03:58.323Z,5.20
2017-06-14T22:06:26.586Z,4.72
2017-06-14T22:08:54.380Z,4.62
2017-06-14T22:11:21.953Z,5.25
2017-06-14T22:13:49.650Z,5.30
2017-06-14T22:16:17.215Z,4.90
2017-06-14T22:18:44.812Z,5.53
2017-06-14T22:21:12.708Z,4.53
2017-06-14T22:23:40.471Z,5.45
2017-06-14T22:26:07.982Z,5.07
2017-06-14T22:28:35.472Z,6.05
2017-06-14T22:31:04.263Z,6.12
2017-06-14T22:33:31.775Z,5.87
2017-06-14T22:35:59.371Z,4.80
2017-06-14T22:38:27.139Z,5.30
2017-06-14T22:40:54.631Z,5.43
2017-06-14T22:43:22.458Z,6.03
2017-06-14T22:45:49.993Z,5.75
2017-06-14T22:48:17.691Z,5.37
2017-06-14T22:50:45.179Z,5.55
2017-06-14T22:53:12.716Z,5.10
2017-06-14T22:55:40.230Z,5.60
2017-06-14T22:58:07.802Z,5.50
2017-06-14T23:00:35.783Z,6.15
2017-06-14T23:03:03.831Z,5.60
2017-06-14T23:05:31.522Z,5.75
2017-06-14T23:07:59.023Z,5.55
2017-06-14T23:10:26.535Z,5.68
2017-06-14T23:12:54.398Z,5.60
2017-06-14T23:15:21.944Z,5.57
2017-06-14T23:17:49.540Z,6.12
2017-06-14T23:20:17.057Z,5.45
2017-06-14T23:22:44.576Z,5.47
2017-06-14T23:25:12.072Z,5.53
2017-06-14T23:27:39.570Z,5.68
2017-06-14T23:30:07.140Z,5.62
2017-06-14T23:32:34.708Z,4.85
2017-06-14T23:35:02.390Z,5.45
2017-06-14T23:37:30.022Z,5.35
2017-06-14T23:39:57.944Z,5.68
2017-06-14T23:42:25.546Z,5.95
2017-06-14T23:44:53.239Z,5.95
2017-06-14T23:47:20.750Z,5.90
2017-06-14T23:49:49.019Z,6.65
2017-06-14T23:52:17.359Z,5.43
2017-06-14T23:54:44.848Z,5.40
2017-06-14T23:57:12.432Z,4.80
2017-06-14T23:59:40.180Z,5.82
